Leconfield, United Kingdom
Current Conditions -  °F | °C
As of 11:50 AM on Friday 31 Oct 2014 (Local Time) from EGXV Reporting Station
Haze Haze  
Wind Chill: 63°   Ceiling: Unl
Heat Index: 63°   Visibility: 5mi
Dew Point: 59°   Wind: 8mph
Humidity: 88%   Direction: 180°S
Pressure: 29.91"   Gusts: NA
Location:  53.88°N, 0.46°W
Report Text: EGXV 311150Z AUTO 18007KT 8000 HZ SCT009/// 17/15 Q1013
Loading
Personal Weather Stations






























Interactive Weather Map New forecast layout! Learn more

10-Day Weather Forecast

Advertisements
Track Severe Weather on mobile